Cleveland, Ohio
Traffic Map
Current Weather Conditions
Cleveland, Ohio
Overcast Haze
Overcast
43°
Feels Like: 39°
Wind Chill: 39° Ceiling: 200
Heat Index: 43° Visibility: 0.75mi
Dew Point: 38° Wind: 7mph
Humidity: 82% Direction: 10° (N)
Pressure: 30.26in Gusts: 0mph
Raw Report DataKBKL 291753Z AUTO 01006KT 3/4SM HZ VV002 06/03 A3026 RMK AO2 VIS 1/4V2 1/2 SLP250 T00610033 10067 20028 55004
Traffic Incident Summary
Active as of:
Severity:
Category:
InformationThere was an issue retrieving the traffic information for this location. Please try a different location or try again shortly.
Advertisements
Track Severe Weather on mobile